sensor_id;sensor_type;location;lat;lon;timestamp;temperature;humidity
15749;DHT22;7976;52.526;13.326;2023-03-01T00:01:30;1.70;99.90
15749;DHT22;7976;52.526;13.326;2023-03-01T00:03:59;1.70;99.90
15749;DHT22;7976;52.526;13.326;2023-03-01T00:06:27;1.70;99.90
15749;DHT22;7976;52.526;13.326;2023-03-01T00:08:54;1.70;99.90
15749;DHT22;7976;52.526;13.326;2023-03-01T00:11:22;1.70;99.90
15749;DHT22;7976;52.526;13.326;2023-03-01T00:13:53;1.70;99.90
15749;DHT22;7976;52.526;13.326;2023-03-01T00:16:24;1.70;99.90
15749;DHT22;7976;52.526;13.326;2023-03-01T00:18:53;1.60;99.90
15749;DHT22;7976;52.526;13.326;2023-03-01T00:21:22;1.70;99.90
15749;DHT22;7976;52.526;13.326;2023-03-01T00:23:50;1.60;99.90
15749;DHT22;7976;52.526;13.326;2023-03-01T00:26:18;1.60;99.90
15749;DHT22;7976;52.526;13.326;2023-03-01T00:28:47;1.60;99.90
15749;DHT22;7976;52.526;13.326;2023-03-01T00:31:15;1.60;99.90
15749;DHT22;7976;52.526;13.326;2023-03-01T00:33:44;1.60;99.90
15749;DHT22;7976;52.526;13.326;2023-03-01T00:36:14;1.60;99.90
15749;DHT22;7976;52.526;13.326;2023-03-01T00:38:45;1.60;99.90
15749;DHT22;7976;52.526;13.326;2023-03-01T00:41:14;1.60;99.90
15749;DHT22;7976;52.526;13.326;2023-03-01T00:43:43;1.60;99.90
15749;DHT22;7976;52.526;13.326;2023-03-01T00:46:13;1.50;99.90
15749;DHT22;7976;52.526;13.326;2023-03-01T00:48:41;1.50;99.90
15749;DHT22;7976;52.526;13.326;2023-03-01T00:51:10;1.50;99.90
15749;DHT22;7976;52.526;13.326;2023-03-01T00:53:39;1.50;99.90
15749;DHT22;7976;52.526;13.326;2023-03-01T00:56:09;1.50;99.90
15749;DHT22;7976;52.526;13.326;2023-03-01T00:58:37;1.50;99.90
15749;DHT22;7976;52.526;13.326;2023-03-01T01:01:08;1.40;99.90
15749;DHT22;7976;52.526;13.326;2023-03-01T01:03:44;1.40;99.90
15749;DHT22;7976;52.526;13.326;2023-03-01T01:06:19;1.40;99.90
15749;DHT22;7976;52.526;13.326;2023-03-01T01:08:49;1.40;99.90
15749;DHT22;7976;52.526;13.326;2023-03-01T01:11:18;1.30;99.90
15749;DHT22;7976;52.526;13.326;2023-03-01T01:13:47;1.30;99.90
15749;DHT22;7976;52.526;13.326;2023-03-01T01:16:14;1.30;99.90
15749;DHT22;7976;52.526;13.326;2023-03-01T01:18:42;1.30;99.90
15749;DHT22;7976;52.526;13.326;2023-03-01T01:21:11;1.20;99.90
15749;DHT22;7976;52.526;13.326;2023-03-01T01:23:41;1.20;99.90
15749;DHT22;7976;52.526;13.326;2023-03-01T01:26:11;1.10;99.90
15749;DHT22;7976;52.526;13.326;2023-03-01T01:28:41;1.10;99.90
15749;DHT22;7976;52.526;13.326;2023-03-01T01:31:08;1.10;99.90
15749;DHT22;7976;52.526;13.326;2023-03-01T01:33:36;1.10;99.90
15749;DHT22;7976;52.526;13.326;2023-03-01T01:36:04;1.10;99.90
15749;DHT22;7976;52.526;13.326;2023-03-01T01:38:32;1.00;99.90
15749;DHT22;7976;52.526;13.326;2023-03-01T01:40:59;1.00;99.90
15749;DHT22;7976;52.526;13.326;2023-03-01T01:43:30;1.00;99.90
15749;DHT22;7976;52.526;13.326;2023-03-01T01:46:02;1.00;99.90
15749;DHT22;7976;52.526;13.326;2023-03-01T01:48:36;1.00;99.90
15749;DHT22;7976;52.526;13.326;2023-03-01T01:51:10;1.00;99.90
15749;DHT22;7976;52.526;13.326;2023-03-01T01:53:40;1.00;99.90
15749;DHT22;7976;52.526;13.326;2023-03-01T01:56:13;1.10;99.90
15749;DHT22;7976;52.526;13.326;2023-03-01T01:58:42;1.00;99.90
15749;DHT22;7976;52.526;13.326;2023-03-01T02:01:11;1.00;99.90
15749;DHT22;7976;52.526;13.326;2023-03-01T02:03:39;1.00;99.90
15749;DHT22;7976;52.526;13.326;2023-03-01T02:06:15;1.00;99.90
15749;DHT22;7976;52.526;13.326;2023-03-01T02:08:49;1.00;99.90
15749;DHT22;7976;52.526;13.326;2023-03-01T02:11:19;1.00;99.90
15749;DHT22;7976;52.526;13.326;2023-03-01T02:13:47;1.00;99.90
15749;DHT22;7976;52.526;13.326;2023-03-01T02:16:17;1.00;99.90
15749;DHT22;7976;52.526;13.326;2023-03-01T02:18:44;1.00;99.90
15749;DHT22;7976;52.526;13.326;2023-03-01T02:24:18;1.00;99.90
15749;DHT22;7976;52.526;13.326;2023-03-01T02:26:56;1.00;99.90
15749;DHT22;7976;52.526;13.326;2023-03-01T02:29:27;1.00;99.90
15749;DHT22;7976;52.526;13.326;2023-03-01T02:31:57;1.00;99.90
15749;DHT22;7976;52.526;13.326;2023-03-01T02:34:27;1.00;99.90
15749;DHT22;7976;52.526;13.326;2023-03-01T02:36:58;0.90;99.90
15749;DHT22;7976;52.526;13.326;2023-03-01T02:39:33;1.00;99.90
15749;DHT22;7976;52.526;13.326;2023-03-01T02:42:10;1.00;99.90
15749;DHT22;7976;52.526;13.326;2023-03-01T02:44:40;1.10;99.90
15749;DHT22;7976;52.526;13.326;2023-03-01T02:47:07;1.10;99.90
15749;DHT22;7976;52.526;13.326;2023-03-01T02:49:35;1.10;99.90
15749;DHT22;7976;52.526;13.326;2023-03-01T02:52:34;1.00;99.90
15749;DHT22;7976;52.526;13.326;2023-03-01T02:55:13;1.00;99.90
15749;DHT22;7976;52.526;13.326;2023-03-01T02:57:45;1.00;99.90
15749;DHT22;7976;52.526;13.326;2023-03-01T03:00:19;1.00;99.90
15749;DHT22;7976;52.526;13.326;2023-03-01T03:02:52;1.00;99.90
15749;DHT22;7976;52.526;13.326;2023-03-01T03:05:24;1.00;99.90
15749;DHT22;7976;52.526;13.326;2023-03-01T03:07:57;1.00;99.90
15749;DHT22;7976;52.526;13.326;2023-03-01T03:10:27;1.00;99.90
15749;DHT22;7976;52.526;13.326;2023-03-01T03:12:58;1.00;99.90
15749;DHT22;7976;52.526;13.326;2023-03-01T03:15:28;1.00;99.90
15749;DHT22;7976;52.526;13.326;2023-03-01T03:17:57;1.00;99.90
15749;DHT22;7976;52.526;13.326;2023-03-01T03:20:26;1.00;99.90
15749;DHT22;7976;52.526;13.326;2023-03-01T03:22:56;1.00;99.90
15749;DHT22;7976;52.526;13.326;2023-03-01T03:25:25;1.00;99.90
15749;DHT22;7976;52.526;13.326;2023-03-01T03:27:54;1.00;99.90
15749;DHT22;7976;52.526;13.326;2023-03-01T03:30:26;1.00;99.90
15749;DHT22;7976;52.526;13.326;2023-03-01T03:32:56;1.00;99.90
15749;DHT22;7976;52.526;13.326;2023-03-01T03:35:28;1.00;99.90
15749;DHT22;7976;52.526;13.326;2023-03-01T03:37:57;1.00;99.90
15749;DHT22;7976;52.526;13.326;2023-03-01T03:40:30;1.00;99.90
15749;DHT22;7976;52.526;13.326;2023-03-01T03:42:58;0.90;99.90
15749;DHT22;7976;52.526;13.326;2023-03-01T03:45:25;0.90;99.90
15749;DHT22;7976;52.526;13.326;2023-03-01T03:47:53;0.90;99.90
15749;DHT22;7976;52.526;13.326;2023-03-01T03:50:20;0.90;99.90
15749;DHT22;7976;52.526;13.326;2023-03-01T03:52:47;0.90;99.90
15749;DHT22;7976;52.526;13.326;2023-03-01T03:55:14;0.90;99.90
15749;DHT22;7976;52.526;13.326;2023-03-01T03:57:48;0.80;99.90
15749;DHT22;7976;52.526;13.326;2023-03-01T04:00:21;0.80;99.90
15749;DHT22;7976;52.526;13.326;2023-03-01T04:02:49;0.80;99.90
15749;DHT22;7976;52.526;13.326;2023-03-01T04:05:24;0.80;99.90
15749;DHT22;7976;52.526;13.326;2023-03-01T04:07:52;0.70;99.90
15749;DHT22;7976;52.526;13.326;2023-03-01T04:10:27;0.80;99.90
15749;DHT22;7976;52.526;13.326;2023-03-01T04:12:55;0.70;99.90
15749;DHT22;7976;52.526;13.326;2023-03-01T04:15:22;0.70;99.90
15749;DHT22;7976;52.526;13.326;2023-03-01T04:17:52;0.70;99.90
15749;DHT22;7976;52.526;13.326;2023-03-01T04:20:23;0.70;99.90
15749;DHT22;7976;52.526;13.326;2023-03-01T04:22:52;0.70;99.90
15749;DHT22;7976;52.526;13.326;2023-03-01T04:25:24;0.70;99.90
15749;DHT22;7976;52.526;13.326;2023-03-01T04:27:51;0.70;99.90
15749;DHT22;7976;52.526;13.326;2023-03-01T04:30:18;0.70;99.90
15749;DHT22;7976;52.526;13.326;2023-03-01T04:32:45;0.70;99.90
15749;DHT22;7976;52.526;13.326;2023-03-01T04:35:12;0.60;99.90
15749;DHT22;7976;52.526;13.326;2023-03-01T04:37:43;0.60;99.90
15749;DHT22;7976;52.526;13.326;2023-03-01T04:40:11;0.60;99.90
15749;DHT22;7976;52.526;13.326;2023-03-01T04:42:42;0.60;99.90
15749;DHT22;7976;52.526;13.326;2023-03-01T04:45:09;0.50;99.90
15749;DHT22;7976;52.526;13.326;2023-03-01T04:47:39;0.50;99.90
15749;DHT22;7976;52.526;13.326;2023-03-01T04:50:13;0.50;99.90
15749;DHT22;7976;52.526;13.326;2023-03-01T04:52:43;0.50;99.90
15749;DHT22;7976;52.526;13.326;2023-03-01T04:55:11;0.50;99.90
15749;DHT22;7976;52.526;13.326;2023-03-01T04:57:40;0.50;99.90
15749;DHT22;7976;52.526;13.326;2023-03-01T05:00:10;0.50;99.90
15749;DHT22;7976;52.526;13.326;2023-03-01T05:02:50;0.50;99.90
15749;DHT22;7976;52.526;13.326;2023-03-01T05:05:23;0.50;99.90
15749;DHT22;7976;52.526;13.326;2023-03-01T05:07:57;0.50;99.90
15749;DHT22;7976;52.526;13.326;2023-03-01T05:10:26;0.50;99.90
15749;DHT22;7976;52.526;13.326;2023-03-01T05:12:55;0.50;99.90
15749;DHT22;7976;52.526;13.326;2023-03-01T05:15:23;0.50;99.90
15749;DHT22;7976;52.526;13.326;2023-03-01T05:17:51;0.50;99.90
15749;DHT22;7976;52.526;13.326;2023-03-01T05:20:18;0.40;99.90
15749;DHT22;7976;52.526;13.326;2023-03-01T05:22:48;0.40;99.90
15749;DHT22;7976;52.526;13.326;2023-03-01T05:25:16;0.40;99.90
15749;DHT22;7976;52.526;13.326;2023-03-01T05:27:43;0.40;99.90
15749;DHT22;7976;52.526;13.326;2023-03-01T05:30:11;0.40;99.90
15749;DHT22;7976;52.526;13.326;2023-03-01T05:32:44;0.30;99.90
15749;DHT22;7976;52.526;13.326;2023-03-01T05:35:13;0.30;99.90
15749;DHT22;7976;52.526;13.326;2023-03-01T05:37:42;0.30;99.90
15749;DHT22;7976;52.526;13.326;2023-03-01T05:40:12;0.30;99.90
15749;DHT22;7976;52.526;13.326;2023-03-01T05:42:44;0.30;99.90
15749;DHT22;7976;52.526;13.326;2023-03-01T05:45:13;0.30;99.90
15749;DHT22;7976;52.526;13.326;2023-03-01T05:47:43;0.30;99.90
15749;DHT22;7976;52.526;13.326;2023-03-01T05:50:12;0.20;99.90
15749;DHT22;7976;52.526;13.326;2023-03-01T05:52:45;0.30;99.90
15749;DHT22;7976;52.526;13.326;2023-03-01T05:55:14;0.30;99.90
15749;DHT22;7976;52.526;13.326;2023-03-01T05:57:42;0.30;99.90
15749;DHT22;7976;52.526;13.326;2023-03-01T06:00:11;0.30;99.90
15749;DHT22;7976;52.526;13.326;2023-03-01T06:02:40;0.20;99.90
15749;DHT22;7976;52.526;13.326;2023-03-01T06:05:09;0.30;99.90
15749;DHT22;7976;52.526;13.326;2023-03-01T06:07:37;0.20;99.90
15749;DHT22;7976;52.526;13.326;2023-03-01T06:10:05;0.20;99.90
15749;DHT22;7976;52.526;13.326;2023-03-01T06:12:35;0.30;99.90
15749;DHT22;7976;52.526;13.326;2023-03-01T06:15:06;0.30;99.90
15749;DHT22;7976;52.526;13.326;2023-03-01T06:17:36;0.30;99.90
15749;DHT22;7976;52.526;13.326;2023-03-01T06:20:07;0.30;99.90
15749;DHT22;7976;52.526;13.326;2023-03-01T06:22:36;0.30;99.90
15749;DHT22;7976;52.526;13.326;2023-03-01T06:25:04;0.30;99.90
15749;DHT22;7976;52.526;13.326;2023-03-01T06:27:32;0.30;99.90
15749;DHT22;7976;52.526;13.326;2023-03-01T06:29:59;0.40;99.90
15749;DHT22;7976;52.526;13.326;2023-03-01T06:32:27;0.40;99.90
15749;DHT22;7976;52.526;13.326;2023-03-01T06:34:54;0.40;99.90
15749;DHT22;7976;52.526;13.326;2023-03-01T06:37:21;0.40;99.90
15749;DHT22;7976;52.526;13.326;2023-03-01T06:39:48;0.50;99.90
15749;DHT22;7976;52.526;13.326;2023-03-01T06:42:15;0.50;99.90
15749;DHT22;7976;52.526;13.326;2023-03-01T06:44:42;0.50;99.90
15749;DHT22;7976;52.526;13.326;2023-03-01T06:47:09;0.50;99.90
15749;DHT22;7976;52.526;13.326;2023-03-01T06:49:37;0.50;99.90
15749;DHT22;7976;52.526;13.326;2023-03-01T06:52:04;0.60;99.90
15749;DHT22;7976;52.526;13.326;2023-03-01T06:54:31;0.60;99.90
15749;DHT22;7976;52.526;13.326;2023-03-01T06:56:58;0.60;99.90
15749;DHT22;7976;52.526;13.326;2023-03-01T06:59:25;0.60;99.90
15749;DHT22;7976;52.526;13.326;2023-03-01T07:01:51;0.70;99.90
15749;DHT22;7976;52.526;13.326;2023-03-01T07:04:18;0.70;99.90
15749;DHT22;7976;52.526;13.326;2023-03-01T07:06:46;0.70;99.90
15749;DHT22;7976;52.526;13.326;2023-03-01T07:09:19;0.80;99.90
15749;DHT22;7976;52.526;13.326;2023-03-01T07:11:47;0.80;99.90
15749;DHT22;7976;52.526;13.326;2023-03-01T07:14:14;0.80;99.90
15749;DHT22;7976;52.526;13.326;2023-03-01T07:16:41;0.80;99.90
15749;DHT22;7976;52.526;13.326;2023-03-01T07:19:08;0.90;99.90
15749;DHT22;7976;52.526;13.326;2023-03-01T07:21:34;0.90;99.90
15749;DHT22;7976;52.526;13.326;2023-03-01T07:24:06;0.90;99.90
15749;DHT22;7976;52.526;13.326;2023-03-01T07:26:34;1.00;99.90
15749;DHT22;7976;52.526;13.326;2023-03-01T07:29:01;1.00;99.90
15749;DHT22;7976;52.526;13.326;2023-03-01T07:31:29;1.10;99.90
15749;DHT22;7976;52.526;13.326;2023-03-01T07:33:56;1.10;99.90
15749;DHT22;7976;52.526;13.326;2023-03-01T07:36:24;1.10;99.90
15749;DHT22;7976;52.526;13.326;2023-03-01T07:38:51;1.10;99.90
15749;DHT22;7976;52.526;13.326;2023-03-01T07:41:20;1.20;99.90
15749;DHT22;7976;52.526;13.326;2023-03-01T07:43:46;1.20;99.90
15749;DHT22;7976;52.526;13.326;2023-03-01T07:46:14;1.30;99.90
15749;DHT22;7976;52.526;13.326;2023-03-01T07:48:41;1.40;99.90
15749;DHT22;7976;52.526;13.326;2023-03-01T07:51:07;1.40;99.90
15749;DHT22;7976;52.526;13.326;2023-03-01T07:53:34;1.40;99.90
15749;DHT22;7976;52.526;13.326;2023-03-01T07:56:03;1.50;99.90
15749;DHT22;7976;52.526;13.326;2023-03-01T07:58:34;1.50;99.90
15749;DHT22;7976;52.526;13.326;2023-03-01T08:01:02;1.60;99.90
15749;DHT22;7976;52.526;13.326;2023-03-01T08:03:29;1.70;99.90
15749;DHT22;7976;52.526;13.326;2023-03-01T08:05:58;1.70;99.90
15749;DHT22;7976;52.526;13.326;2023-03-01T08:08:26;1.80;99.90
15749;DHT22;7976;52.526;13.326;2023-03-01T08:10:55;1.80;99.90
15749;DHT22;7976;52.526;13.326;2023-03-01T08:13:23;1.90;99.90
15749;DHT22;7976;52.526;13.326;2023-03-01T08:15:51;1.90;99.90
15749;DHT22;7976;52.526;13.326;2023-03-01T08:18:20;2.00;99.90
15749;DHT22;7976;52.526;13.326;2023-03-01T08:20:47;2.00;99.90
15749;DHT22;7976;52.526;13.326;2023-03-01T08:23:14;2.10;99.90
15749;DHT22;7976;52.526;13.326;2023-03-01T08:25:41;2.20;99.90
15749;DHT22;7976;52.526;13.326;2023-03-01T08:28:08;2.20;99.90
15749;DHT22;7976;52.526;13.326;2023-03-01T08:30:35;2.30;99.90
15749;DHT22;7976;52.526;13.326;2023-03-01T08:33:03;2.40;99.90
15749;DHT22;7976;52.526;13.326;2023-03-01T08:35:30;2.50;99.90
15749;DHT22;7976;52.526;13.326;2023-03-01T08:37:56;2.60;99.90
15749;DHT22;7976;52.526;13.326;2023-03-01T08:40:23;2.70;99.90
15749;DHT22;7976;52.526;13.326;2023-03-01T08:42:50;2.80;99.90
15749;DHT22;7976;52.526;13.326;2023-03-01T08:45:17;2.90;99.90
15749;DHT22;7976;52.526;13.326;2023-03-01T08:47:44;3.00;99.90
15749;DHT22;7976;52.526;13.326;2023-03-01T08:50:12;3.10;99.90
15749;DHT22;7976;52.526;13.326;2023-03-01T08:52:39;3.20;99.90
15749;DHT22;7976;52.526;13.326;2023-03-01T08:55:07;3.30;99.90
15749;DHT22;7976;52.526;13.326;2023-03-01T08:57:34;3.40;99.90
15749;DHT22;7976;52.526;13.326;2023-03-01T09:00:02;3.50;99.90
15749;DHT22;7976;52.526;13.326;2023-03-01T09:02:33;3.60;99.90
15749;DHT22;7976;52.526;13.326;2023-03-01T09:05:00;3.60;99.90
15749;DHT22;7976;52.526;13.326;2023-03-01T09:07:28;3.70;99.90
15749;DHT22;7976;52.526;13.326;2023-03-01T09:09:55;3.70;99.90
15749;DHT22;7976;52.526;13.326;2023-03-01T09:12:22;3.80;99.90
15749;DHT22;7976;52.526;13.326;2023-03-01T09:14:50;3.80;99.90
15749;DHT22;7976;52.526;13.326;2023-03-01T09:17:17;3.90;99.90
15749;DHT22;7976;52.526;13.326;2023-03-01T09:19:47;3.90;99.90
15749;DHT22;7976;52.526;13.326;2023-03-01T09:22:14;4.00;99.90
15749;DHT22;7976;52.526;13.326;2023-03-01T09:24:42;4.10;99.90
15749;DHT22;7976;52.526;13.326;2023-03-01T09:27:09;4.20;99.90
15749;DHT22;7976;52.526;13.326;2023-03-01T09:29:37;4.30;99.90
15749;DHT22;7976;52.526;13.326;2023-03-01T09:32:05;4.30;99.90
15749;DHT22;7976;52.526;13.326;2023-03-01T09:34:33;4.40;99.90
15749;DHT22;7976;52.526;13.326;2023-03-01T09:37:20;4.50;99.90
15749;DHT22;7976;52.526;13.326;2023-03-01T09:39:48;4.50;99.90
15749;DHT22;7976;52.526;13.326;2023-03-01T09:42:15;4.50;99.90
15749;DHT22;7976;52.526;13.326;2023-03-01T09:44:47;4.60;99.90
15749;DHT22;7976;52.526;13.326;2023-03-01T09:47:21;4.60;99.90
15749;DHT22;7976;52.526;13.326;2023-03-01T09:50:00;4.70;99.90
15749;DHT22;7976;52.526;13.326;2023-03-01T09:52:37;4.70;99.90
15749;DHT22;7976;52.526;13.326;2023-03-01T09:55:15;4.80;99.90
15749;DHT22;7976;52.526;13.326;2023-03-01T09:57:49;4.90;99.90
15749;DHT22;7976;52.526;13.326;2023-03-01T10:00:31;5.00;99.90
15749;DHT22;7976;52.526;13.326;2023-03-01T10:03:13;5.00;99.90
15749;DHT22;7976;52.526;13.326;2023-03-01T10:05:53;5.20;99.90
15749;DHT22;7976;52.526;13.326;2023-03-01T10:08:30;5.20;99.90
15749;DHT22;7976;52.526;13.326;2023-03-01T10:11:05;5.20;99.90
15749;DHT22;7976;52.526;13.326;2023-03-01T10:13:48;5.40;99.90
15749;DHT22;7976;52.526;13.326;2023-03-01T10:16:26;5.50;99.90
15749;DHT22;7976;52.526;13.326;2023-03-01T10:19:02;5.50;99.90
15749;DHT22;7976;52.526;13.326;2023-03-01T10:21:36;5.60;99.90
15749;DHT22;7976;52.526;13.326;2023-03-01T10:24:13;5.60;99.90
15749;DHT22;7976;52.526;13.326;2023-03-01T10:26:53;5.70;99.90
15749;DHT22;7976;52.526;13.326;2023-03-01T10:29:26;5.70;99.90
15749;DHT22;7976;52.526;13.326;2023-03-01T10:32:02;5.70;99.90
15749;DHT22;7976;52.526;13.326;2023-03-01T10:34:33;5.80;99.90
15749;DHT22;7976;52.526;13.326;2023-03-01T10:37:09;5.90;99.90
15749;DHT22;7976;52.526;13.326;2023-03-01T10:39:55;6.00;99.90
15749;DHT22;7976;52.526;13.326;2023-03-01T10:42:29;6.10;99.90
15749;DHT22;7976;52.526;13.326;2023-03-01T10:44:57;6.10;99.90
15749;DHT22;7976;52.526;13.326;2023-03-01T10:47:26;6.20;99.90
15749;DHT22;7976;52.526;13.326;2023-03-01T10:49:57;6.30;99.90
15749;DHT22;7976;52.526;13.326;2023-03-01T10:52:30;6.30;99.90
15749;DHT22;7976;52.526;13.326;2023-03-01T10:55:00;6.40;99.90
15749;DHT22;7976;52.526;13.326;2023-03-01T10:57:36;6.50;99.90
15749;DHT22;7976;52.526;13.326;2023-03-01T11:00:16;6.50;99.90
15749;DHT22;7976;52.526;13.326;2023-03-01T11:02:51;6.60;99.90
15749;DHT22;7976;52.526;13.326;2023-03-01T11:05:29;6.70;99.90
15749;DHT22;7976;52.526;13.326;2023-03-01T11:08:00;6.70;99.90
15749;DHT22;7976;52.526;13.326;2023-03-01T11:10:29;6.70;99.90
15749;DHT22;7976;52.526;13.326;2023-03-01T11:13:14;6.70;99.90
15749;DHT22;7976;52.526;13.326;2023-03-01T11:15:43;6.70;99.90
15749;DHT22;7976;52.526;13.326;2023-03-01T11:18:26;6.70;99.90
15749;DHT22;7976;52.526;13.326;2023-03-01T11:20:55;6.80;99.90
15749;DHT22;7976;52.526;13.326;2023-03-01T11:23:24;6.80;99.90
15749;DHT22;7976;52.526;13.326;2023-03-01T11:25:55;6.90;99.90
15749;DHT22;7976;52.526;13.326;2023-03-01T11:28:27;6.90;99.90
15749;DHT22;7976;52.526;13.326;2023-03-01T11:30:59;7.00;99.90
15749;DHT22;7976;52.526;13.326;2023-03-01T11:33:37;7.00;99.90
15749;DHT22;7976;52.526;13.326;2023-03-01T11:36:17;7.10;99.90
15749;DHT22;7976;52.526;13.326;2023-03-01T11:38:50;7.00;99.90
15749;DHT22;7976;52.526;13.326;2023-03-01T11:41:20;7.00;99.90
15749;DHT22;7976;52.526;13.326;2023-03-01T11:43:55;7.10;99.90
15749;DHT22;7976;52.526;13.326;2023-03-01T11:46:51;7.10;99.90
15749;DHT22;7976;52.526;13.326;2023-03-01T11:49:53;7.20;99.90
15749;DHT22;7976;52.526;13.326;2023-03-01T11:52:42;7.30;99.90
15749;DHT22;7976;52.526;13.326;2023-03-01T11:55:29;7.30;99.90
15749;DHT22;7976;52.526;13.326;2023-03-01T11:58:19;7.30;99.90
15749;DHT22;7976;52.526;13.326;2023-03-01T12:01:13;7.30;99.90
15749;DHT22;7976;52.526;13.326;2023-03-01T12:07:25;7.20;99.90
15749;DHT22;7976;52.526;13.326;2023-03-01T12:10:22;7.20;99.90
15749;DHT22;7976;52.526;13.326;2023-03-01T12:13:03;7.20;99.90
15749;DHT22;7976;52.526;13.326;2023-03-01T12:16:12;7.30;99.90
15749;DHT22;7976;52.526;13.326;2023-03-01T12:19:01;7.40;99.90
15749;DHT22;7976;52.526;13.326;2023-03-01T12:22:01;7.40;99.90
15749;DHT22;7976;52.526;13.326;2023-03-01T12:28:17;7.60;99.90
15749;DHT22;7976;52.526;13.326;2023-03-01T12:34:17;7.60;99.90
15749;DHT22;7976;52.526;13.326;2023-03-01T12:37:09;7.60;99.90
15749;DHT22;7976;52.526;13.326;2023-03-01T12:39:58;7.60;99.90
15749;DHT22;7976;52.526;13.326;2023-03-01T12:42:43;7.70;99.90
15749;DHT22;7976;52.526;13.326;2023-03-01T12:45:35;7.70;99.10
15749;DHT22;7976;52.526;13.326;2023-03-01T12:48:31;7.70;98.70
15749;DHT22;7976;52.526;13.326;2023-03-01T12:51:08;7.70;98.90
15749;DHT22;7976;52.526;13.326;2023-03-01T12:53:42;7.70;98.40
15749;DHT22;7976;52.526;13.326;2023-03-01T12:56:15;7.70;97.80
15749;DHT22;7976;52.526;13.326;2023-03-01T12:58:51;7.60;98.00
15749;DHT22;7976;52.526;13.326;2023-03-01T13:01:33;7.60;98.10
15749;DHT22;7976;52.526;13.326;2023-03-01T13:04:20;7.50;97.40
15749;DHT22;7976;52.526;13.326;2023-03-01T13:07:02;7.50;98.40
15749;DHT22;7976;52.526;13.326;2023-03-01T13:09:42;7.50;98.40
15749;DHT22;7976;52.526;13.326;2023-03-01T13:12:43;7.50;98.50
15749;DHT22;7976;52.526;13.326;2023-03-01T13:15:32;7.60;97.50
15749;DHT22;7976;52.526;13.326;2023-03-01T13:18:03;7.60;97.50
15749;DHT22;7976;52.526;13.326;2023-03-01T13:20:53;7.70;96.90
15749;DHT22;7976;52.526;13.326;2023-03-01T13:23:28;7.80;95.50
15749;DHT22;7976;52.526;13.326;2023-03-01T13:26:06;7.90;95.20
15749;DHT22;7976;52.526;13.326;2023-03-01T13:28:51;8.10;95.50
15749;DHT22;7976;52.526;13.326;2023-03-01T13:31:57;8.10;95.70
15749;DHT22;7976;52.526;13.326;2023-03-01T13:34:50;8.10;95.80
15749;DHT22;7976;52.526;13.326;2023-03-01T13:37:30;8.00;95.70
15749;DHT22;7976;52.526;13.326;2023-03-01T13:40:02;7.90;95.30
15749;DHT22;7976;52.526;13.326;2023-03-01T13:42:52;7.90;95.90
15749;DHT22;7976;52.526;13.326;2023-03-01T13:45:24;7.80;95.90
15749;DHT22;7976;52.526;13.326;2023-03-01T13:48:02;7.70;95.60
15749;DHT22;7976;52.526;13.326;2023-03-01T13:50:43;7.70;95.90
15749;DHT22;7976;52.526;13.326;2023-03-01T13:53:17;7.60;96.60
15749;DHT22;7976;52.526;13.326;2023-03-01T13:55:48;7.60;96.10
15749;DHT22;7976;52.526;13.326;2023-03-01T13:58:22;7.60;96.00
15749;DHT22;7976;52.526;13.326;2023-03-01T14:00:59;7.60;95.70
15749;DHT22;7976;52.526;13.326;2023-03-01T14:03:30;7.60;95.70
15749;DHT22;7976;52.526;13.326;2023-03-01T14:06:02;7.60;95.90
15749;DHT22;7976;52.526;13.326;2023-03-01T14:08:35;7.60;96.00
15749;DHT22;7976;52.526;13.326;2023-03-01T14:14:44;7.60;97.10
15749;DHT22;7976;52.526;13.326;2023-03-01T14:17:40;7.60;97.60
15749;DHT22;7976;52.526;13.326;2023-03-01T14:20:18;7.60;97.90
15749;DHT22;7976;52.526;13.326;2023-03-01T14:22:48;7.50;98.00
15749;DHT22;7976;52.526;13.326;2023-03-01T14:25:28;7.50;97.70
15749;DHT22;7976;52.526;13.326;2023-03-01T14:28:00;7.60;97.60
15749;DHT22;7976;52.526;13.326;2023-03-01T14:30:33;7.60;97.40
15749;DHT22;7976;52.526;13.326;2023-03-01T14:33:05;7.70;97.30
15749;DHT22;7976;52.526;13.326;2023-03-01T14:35:52;7.80;97.20
15749;DHT22;7976;52.526;13.326;2023-03-01T14:38:23;7.80;96.10
15749;DHT22;7976;52.526;13.326;2023-03-01T14:40:58;7.80;96.80
15749;DHT22;7976;52.526;13.326;2023-03-01T14:43:29;7.80;97.00
15749;DHT22;7976;52.526;13.326;2023-03-01T14:45:57;7.70;97.20
15749;DHT22;7976;52.526;13.326;2023-03-01T14:48:24;7.70;97.30
15749;DHT22;7976;52.526;13.326;2023-03-01T14:50:53;7.90;97.80
15749;DHT22;7976;52.526;13.326;2023-03-01T14:53:23;7.90;98.00
15749;DHT22;7976;52.526;13.326;2023-03-01T14:55:56;7.90;98.40
15749;DHT22;7976;52.526;13.326;2023-03-01T14:58:28;7.90;98.30
15749;DHT22;7976;52.526;13.326;2023-03-01T15:00:57;7.90;98.70
15749;DHT22;7976;52.526;13.326;2023-03-01T15:03:31;7.90;98.30
15749;DHT22;7976;52.526;13.326;2023-03-01T15:06:04;7.90;98.10
15749;DHT22;7976;52.526;13.326;2023-03-01T15:08:33;7.90;98.10
15749;DHT22;7976;52.526;13.326;2023-03-01T15:11:17;7.90;98.20
15749;DHT22;7976;52.526;13.326;2023-03-01T15:13:48;7.90;99.10
15749;DHT22;7976;52.526;13.326;2023-03-01T15:16:17;7.80;98.70
15749;DHT22;7976;52.526;13.326;2023-03-01T15:18:48;7.70;98.60
15749;DHT22;7976;52.526;13.326;2023-03-01T15:21:18;7.70;99.00
15749;DHT22;7976;52.526;13.326;2023-03-01T15:23:50;7.60;98.90
15749;DHT22;7976;52.526;13.326;2023-03-01T15:26:30;7.60;99.10
15749;DHT22;7976;52.526;13.326;2023-03-01T15:29:00;7.60;99.40
15749;DHT22;7976;52.526;13.326;2023-03-01T15:31:30;7.60;98.90
15749;DHT22;7976;52.526;13.326;2023-03-01T15:34:19;7.60;98.70
15749;DHT22;7976;52.526;13.326;2023-03-01T15:36:50;7.60;98.70
15749;DHT22;7976;52.526;13.326;2023-03-01T15:39:36;7.70;98.50
15749;DHT22;7976;52.526;13.326;2023-03-01T15:42:11;7.60;98.70
15749;DHT22;7976;52.526;13.326;2023-03-01T15:44:42;7.60;98.80
15749;DHT22;7976;52.526;13.326;2023-03-01T15:47:28;7.50;99.10
15749;DHT22;7976;52.526;13.326;2023-03-01T15:49:58;7.50;99.20
15749;DHT22;7976;52.526;13.326;2023-03-01T15:52:28;7.40;99.40
15749;DHT22;7976;52.526;13.326;2023-03-01T15:55:12;7.40;99.50
15749;DHT22;7976;52.526;13.326;2023-03-01T15:57:44;7.30;99.20
15749;DHT22;7976;52.526;13.326;2023-03-01T16:00:13;7.30;99.60
15749;DHT22;7976;52.526;13.326;2023-03-01T16:02:42;7.30;99.90
15749;DHT22;7976;52.526;13.326;2023-03-01T16:05:17;7.20;99.90
15749;DHT22;7976;52.526;13.326;2023-03-01T16:07:47;7.20;99.70
15749;DHT22;7976;52.526;13.326;2023-03-01T16:10:14;7.20;99.80
15749;DHT22;7976;52.526;13.326;2023-03-01T16:12:41;7.20;99.80
15749;DHT22;7976;52.526;13.326;2023-03-01T16:15:16;7.20;99.90
15749;DHT22;7976;52.526;13.326;2023-03-01T16:17:44;7.20;99.90
15749;DHT22;7976;52.526;13.326;2023-03-01T16:20:20;7.10;99.90
15749;DHT22;7976;52.526;13.326;2023-03-01T16:22:48;7.20;99.80
15749;DHT22;7976;52.526;13.326;2023-03-01T16:25:17;7.20;99.80
15749;DHT22;7976;52.526;13.326;2023-03-01T16:27:47;7.20;99.80
15749;DHT22;7976;52.526;13.326;2023-03-01T16:30:18;7.20;99.90
15749;DHT22;7976;52.526;13.326;2023-03-01T16:32:48;7.10;99.90
15749;DHT22;7976;52.526;13.326;2023-03-01T16:35:17;7.10;99.90